Time;durP1;ratioP1;P1;durP2;ratioP2;P2;SDS_P1;SDS_P2;PMS_P1;PMS_P2;Temp;Humidity;BMP_temperature;BMP_pressure;BME280_temperature;BME280_humidity;BME280_pressure;Samples;Min_cycle;Max_cycle;Signal;HPM_P1;HPM_P2
2022/09/28 00:00:26;;;;;;;1.75;1.65;;;20.00;99.90;;;;;;5025036;28;20269;-77
2022/09/28 00:02:58;;;;;;;1.35;1.20;;;20.20;99.90;;;;;;5024681;28;21172;-78
2022/09/28 00:05:29;;;;;;;1.80;1.20;;;20.20;99.90;;;;;;5030478;28;20207;-77
2022/09/28 00:08:03;;;;;;;1.60;1.30;;;20.20;99.90;;;;;;5026160;28;20211;-77
2022/09/28 00:10:33;;;;;;;1.50;1.40;;;20.20;99.90;;;;;;5025626;28;20197;-77
2022/09/28 00:13:05;;;;;;;1.50;1.40;;;20.30;99.90;;;;;;5025513;28;20232;-77
2022/09/28 00:15:36;;;;;;;2.47;1.38;;;20.40;99.90;;;;;;5027207;28;20312;-77
2022/09/28 00:18:07;;;;;;;2.17;1.23;;;20.60;99.90;;;;;;5030558;28;22153;-78
2022/09/28 00:20:38;;;;;;;1.35;1.25;;;20.70;99.90;;;;;;5025504;28;20553;-77
2022/09/28 00:23:10;;;;;;;2.25;1.30;;;20.70;99.90;;;;;;5026917;28;20197;-78
2022/09/28 00:25:41;;;;;;;1.42;1.15;;;20.70;99.90;;;;;;5025755;28;20215;-78
2022/09/28 00:28:12;;;;;;;1.83;1.30;;;20.60;99.90;;;;;;5026340;28;20200;-78
2022/09/28 00:30:42;;;;;;;4.82;1.63;;;20.50;99.90;;;;;;5026821;28;20854;-78
2022/09/28 00:33:13;;;;;;;1.58;1.40;;;20.70;99.90;;;;;;5027307;28;20228;-78
2022/09/28 00:35:44;;;;;;;1.88;1.35;;;20.90;99.90;;;;;;5039589;28;20681;-78
2022/09/28 00:38:16;;;;;;;1.85;1.40;;;20.90;99.90;;;;;;5042973;28;20216;-77
2022/09/28 00:40:47;;;;;;;1.50;1.40;;;21.10;99.90;;;;;;5041110;28;20189;-78
2022/09/28 00:43:25;;;;;;;1.40;1.30;;;21.20;99.90;;;;;;5040878;28;20207;-80
2022/09/28 00:46:00;;;;;;;1.65;1.23;;;21.30;99.90;;;;;;5032426;28;20203;-80
2022/09/28 00:48:34;;;;;;;1.50;1.40;;;21.40;99.90;;;;;;5024834;28;20212;-80
2022/09/28 00:51:09;;;;;;;1.77;1.23;;;21.60;99.90;;;;;;5025645;28;20201;-80
2022/09/28 00:53:44;;;;;;;1.80;1.20;;;21.60;99.90;;;;;;5027727;28;20239;-79
2022/09/28 00:56:18;;;;;;;2.75;1.08;;;21.80;99.90;;;;;;5025017;28;21032;-78
2022/09/28 00:58:51;;;;;;;1.30;1.10;;;22.00;99.90;;;;;;5023849;28;20193;-77
2022/09/28 01:01:22;;;;;;;2.33;1.00;;;22.10;99.90;;;;;;5024544;28;20632;-78
2022/09/28 01:03:53;;;;;;;1.10;1.00;;;22.20;99.90;;;;;;5026853;28;20201;-78
2022/09/28 01:06:26;;;;;;;1.63;1.20;;;22.30;99.90;;;;;;5026460;28;20204;-77
2022/09/28 01:09:01;;;;;;;1.45;1.25;;;22.20;99.90;;;;;;5025618;28;20723;-78
2022/09/28 01:11:33;;;;;;;1.20;1.10;;;22.30;99.90;;;;;;5024328;28;20257;-78
2022/09/28 01:14:06;;;;;;;2.42;1.02;;;22.30;99.90;;;;;;5023821;28;20225;-78
2022/09/28 01:16:43;;;;;;;0.90;0.90;;;22.30;99.90;;;;;;5027683;28;20241;-78
2022/09/28 01:19:34;;;;;;;2.63;1.00;;;22.50;99.90;;;;;;5026870;28;20235;-78
2022/09/28 01:22:18;;;;;;;1.30;1.02;;;22.70;99.90;;;;;;5024567;28;20216;-78
2022/09/28 01:24:57;;;;;;;1.48;1.17;;;22.70;99.90;;;;;;5024378;28;20200;-78
2022/09/28 01:27:34;;;;;;;0.85;0.82;;;22.80;99.90;;;;;;5024980;28;20550;-78
2022/09/28 01:30:08;;;;;;;1.85;0.85;;;22.90;99.90;;;;;;5026249;28;20208;-78
2022/09/28 01:32:48;;;;;;;1.42;0.90;;;22.90;99.90;;;;;;5025295;28;20233;-78
2022/09/28 01:35:24;;;;;;;0.73;0.73;;;22.90;99.90;;;;;;5040584;28;20261;-78
2022/09/28 01:37:59;;;;;;;0.90;0.90;;;23.10;99.90;;;;;;5044067;28;20288;-78
2022/09/28 01:40:34;;;;;;;1.55;0.90;;;23.20;99.90;;;;;;5048637;28;20444;-78
2022/09/28 01:43:09;;;;;;;1.58;0.80;;;23.20;99.90;;;;;;5046081;28;20223;-77
2022/09/28 01:45:45;;;;;;;0.77;0.70;;;23.30;99.90;;;;;;5042335;28;20207;-78
2022/09/28 01:48:20;;;;;;;1.00;0.75;;;23.40;99.90;;;;;;5041393;28;21284;-78
2022/09/28 01:50:52;;;;;;;0.82;0.73;;;23.50;99.90;;;;;;5040892;28;20196;-77
2022/09/28 01:53:28;;;;;;;0.80;0.80;;;23.70;99.90;;;;;;5041428;28;20580;-77
2022/09/28 01:56:06;;;;;;;0.93;0.93;;;23.60;99.90;;;;;;5042513;28;20204;-78
2022/09/28 01:58:42;;;;;;;2.17;0.95;;;23.50;99.90;;;;;;5043972;28;20197;-78
2022/09/28 02:01:19;;;;;;;1.13;0.90;;;23.30;99.90;;;;;;5046205;28;20196;-78
2022/09/28 02:03:56;;;;;;;1.15;0.90;;;23.40;99.90;;;;;;5031635;28;20786;-78
2022/09/28 02:06:34;;;;;;;1.30;0.80;;;23.60;99.90;;;;;;5028035;28;20193;-78
2022/09/28 02:09:11;;;;;;;1.00;0.90;;;23.50;99.90;;;;;;5027663;28;20267;-77
2022/09/28 02:11:47;;;;;;;2.72;1.00;;;23.50;99.90;;;;;;5028495;28;20197;-77
2022/09/28 02:14:21;;;;;;;1.23;0.63;;;23.60;99.90;;;;;;5028343;28;20231;-78
2022/09/28 02:16:54;;;;;;;0.70;0.70;;;23.80;99.90;;;;;;5034016;28;20200;-78
2022/09/28 02:19:27;;;;;;;1.17;0.88;;;23.70;99.90;;;;;;5029984;28;20207;-79
2022/09/28 02:22:03;;;;;;;1.00;0.90;;;23.90;99.90;;;;;;5028667;28;20200;-79
2022/09/28 02:24:39;;;;;;;2.72;1.00;;;24.10;99.90;;;;;;5028582;28;20215;-80
2022/09/28 02:27:18;;;;;;;0.80;0.80;;;24.30;99.90;;;;;;5029994;28;20273;-80
2022/09/28 02:29:52;;;;;;;1.17;0.70;;;24.50;99.90;;;;;;5029712;28;20196;-79
2022/09/28 02:32:23;;;;;;;3.10;0.93;;;24.60;99.90;;;;;;5026604;28;20205;-79
2022/09/28 02:34:54;;;;;;;0.60;0.60;;;24.60;99.90;;;;;;5028689;28;20200;-80
2022/09/28 02:37:25;;;;;;;1.00;0.75;;;24.20;99.70;;;;;;5029938;28;20236;-79
2022/09/28 02:39:55;;;;;;;1.63;0.80;;;24.30;99.90;;;;;;5032578;28;20205;-79
2022/09/28 02:42:30;;;;;;;0.80;0.73;;;24.60;99.90;;;;;;5030349;28;20204;-80
2022/09/28 02:45:16;;;;;;;1.13;0.70;;;24.80;99.90;;;;;;5033887;28;20219;-80
2022/09/28 02:48:05;;;;;;;1.10;1.00;;;24.90;99.90;;;;;;5043615;28;20229;-79
2022/09/28 02:50:45;;;;;;;1.95;1.40;;;25.10;99.90;;;;;;5026021;28;20211;-79
2022/09/28 02:53:38;;;;;;;4.25;1.58;;;25.30;99.90;;;;;;5028549;28;20327;-79
2022/09/28 02:56:26;;;;;;;2.33;1.48;;;25.50;99.90;;;;;;5023918;28;20213;-80
2022/09/28 02:59:06;;;;;;;3.42;1.30;;;25.60;99.90;;;;;;5033197;28;20200;-81
2022/09/28 03:01:46;;;;;;;1.83;1.13;;;25.30;99.90;;;;;;5029528;28;20200;-79
2022/09/28 03:04:28;;;;;;;4.88;1.23;;;24.90;99.90;;;;;;5036578;28;20318;-79
2022/09/28 03:07:07;;;;;;;2.47;1.20;;;24.70;99.90;;;;;;5049925;28;20192;-78
2022/09/28 03:09:44;;;;;;;4.97;1.30;;;24.40;99.90;;;;;;5050133;28;20216;-79
2022/09/28 03:12:19;;;;;;;2.53;1.30;;;24.40;99.90;;;;;;5049719;28;20210;-79
2022/09/28 03:14:53;;;;;;;2.17;1.08;;;24.50;99.90;;;;;;5050531;28;20283;-79
2022/09/28 03:17:28;;;;;;;3.38;1.27;;;24.60;99.90;;;;;;5048876;28;20200;-80
2022/09/28 03:19:59;;;;;;;2.88;1.20;;;24.70;99.90;;;;;;5051146;28;20294;-79
2022/09/28 03:22:31;;;;;;;3.13;1.02;;;24.90;99.90;;;;;;5048404;28;20207;-80
2022/09/28 03:25:04;;;;;;;3.78;1.38;;;24.90;99.90;;;;;;5052849;28;20215;-83
2022/09/28 03:27:35;;;;;;;2.42;1.20;;;24.90;99.90;;;;;;5048572;28;20216;-80
2022/09/28 03:30:06;;;;;;;2.78;1.38;;;24.90;99.90;;;;;;5053373;28;20195;-79
2022/09/28 03:32:39;;;;;;;2.53;1.63;;;24.90;99.90;;;;;;5047772;28;20238;-79
2022/09/28 03:35:13;;;;;;;6.03;1.50;;;25.00;99.90;;;;;;5050023;28;20197;-79
2022/09/28 03:37:44;;;;;;;3.13;1.30;;;25.10;99.90;;;;;;5051835;28;20231;-80
2022/09/28 03:40:16;;;;;;;3.10;1.40;;;25.00;99.90;;;;;;5049958;28;20221;-79
2022/09/28 03:42:48;;;;;;;3.75;1.23;;;25.00;99.90;;;;;;5051629;28;20283;-79
2022/09/28 03:45:20;;;;;;;4.57;1.40;;;25.00;99.90;;;;;;5053268;28;20866;-79
2022/09/28 03:47:57;;;;;;;5.97;1.50;;;24.80;99.90;;;;;;5052396;28;20196;-80
2022/09/28 03:50:29;;;;;;;2.75;1.13;;;24.60;99.90;;;;;;5056160;28;20262;-79
2022/09/28 03:53:06;;;;;;;5.47;1.17;;;24.50;99.90;;;;;;5060416;28;20234;-80
2022/09/28 03:55:37;;;;;;;4.05;1.10;;;24.40;99.90;;;;;;5051561;28;20289;-79
2022/09/28 03:58:08;;;;;;;3.17;1.02;;;23.90;99.90;;;;;;5050505;28;20234;-79
2022/09/28 04:00:41;;;;;;;2.63;1.10;;;23.70;99.90;;;;;;5050815;28;20208;-79
2022/09/28 04:03:15;;;;;;;3.53;1.42;;;23.40;99.90;;;;;;5050106;28;20258;-79
2022/09/28 04:05:52;;;;;;;2.97;1.25;;;23.10;99.90;;;;;;5033910;28;20204;-79
2022/09/28 04:08:26;;;;;;;3.35;1.33;;;23.00;99.90;;;;;;5030032;28;20261;-81
2022/09/28 04:10:59;;;;;;;3.92;1.50;;;23.20;99.90;;;;;;5030416;28;20197;-80
2022/09/28 04:13:31;;;;;;;4.35;0.93;;;23.40;99.90;;;;;;5026349;28;20217;-80
2022/09/28 04:16:03;;;;;;;2.10;1.00;;;23.50;99.90;;;;;;5035538;28;20218;-80
2022/09/28 04:18:37;;;;;;;2.15;0.90;;;23.70;99.90;;;;;;5045177;28;21019;-80
2022/09/28 04:21:13;;;;;;;4.60;1.40;;;23.60;99.90;;;;;;5045877;28;20196;-80
2022/09/28 04:23:44;;;;;;;4.85;1.30;;;23.40;99.90;;;;;;5049523;28;20218;-80
2022/09/28 04:26:18;;;;;;;3.33;1.10;;;23.40;99.90;;;;;;5046204;28;20205;-79
2022/09/28 04:31:42;;;;;;;2.97;1.23;;;23.30;99.90;;;;;;5050279;28;20196;-79
2022/09/28 04:34:19;;;;;;;3.45;1.02;;;23.10;99.90;;;;;;5049743;28;20235;-79
2022/09/28 04:36:50;;;;;;;4.20;1.27;;;23.00;99.90;;;;;;5047702;28;20279;-79
2022/09/28 04:39:21;;;;;;;3.92;1.33;;;23.00;99.90;;;;;;5049663;28;20219;-79
2022/09/28 04:41:53;;;;;;;6.55;1.30;;;23.10;99.90;;;;;;5066900;28;20220;-81
2022/09/28 04:44:24;;;;;;;3.75;1.30;;;23.10;99.90;;;;;;5048789;28;20208;-80
2022/09/28 04:46:57;;;;;;;5.18;1.33;;;23.20;99.90;;;;;;5045515;28;20515;-78
2022/09/28 04:49:30;;;;;;;5.05;1.25;;;23.30;99.90;;;;;;5047905;28;20308;-80
2022/09/28 04:52:02;;;;;;;5.03;1.50;;;23.40;99.90;;;;;;5048063;28;20220;-79
2022/09/28 04:54:33;;;;;;;3.47;1.30;;;23.30;99.90;;;;;;5049072;28;20240;-79
2022/09/28 04:57:05;;;;;;;5.35;1.63;;;23.10;99.90;;;;;;5050774;28;20208;-79
2022/09/28 04:59:37;;;;;;;5.80;1.30;;;23.10;99.90;;;;;;5057794;28;20246;-79
2022/09/28 05:02:08;;;;;;;4.82;1.52;;;23.20;99.90;;;;;;5028474;28;20204;-79
2022/09/28 05:04:41;;;;;;;5.32;1.50;;;23.20;99.90;;;;;;5032786;28;20196;-78
2022/09/28 05:07:11;;;;;;;4.60;1.52;;;23.20;99.90;;;;;;5025074;28;20210;-79
2022/09/28 05:09:45;;;;;;;6.88;1.67;;;23.00;99.90;;;;;;5032248;28;20204;-79
2022/09/28 05:12:16;;;;;;;7.28;1.73;;;23.00;99.90;;;;;;5028681;28;20204;-79
2022/09/28 05:14:47;;;;;;;3.97;1.50;;;23.10;99.90;;;;;;5024497;28;20227;-79
2022/09/28 05:17:17;;;;;;;5.53;1.60;;;22.90;99.90;;;;;;5031874;28;20204;-79
2022/09/28 05:19:50;;;;;;;5.57;1.33;;;22.60;99.90;;;;;;5024075;28;20196;-79
2022/09/28 05:22:21;;;;;;;6.03;1.55;;;22.40;99.90;;;;;;5024783;28;20283;-78
2022/09/28 05:24:53;;;;;;;6.10;1.70;;;22.20;99.90;;;;;;5024626;28;20571;-79
2022/09/28 05:27:24;;;;;;;5.38;1.30;;;22.10;99.90;;;;;;5024236;28;20197;-79
2022/09/28 05:29:55;;;;;;;4.15;1.60;;;22.10;99.90;;;;;;5024570;28;20201;-79
2022/09/28 05:32:26;;;;;;;5.47;1.65;;;21.90;99.90;;;;;;5029131;28;20274;-79
2022/09/28 05:34:59;;;;;;;5.72;1.20;;;21.80;99.90;;;;;;5029686;28;20234;-79
2022/09/28 05:37:30;;;;;;;4.97;1.30;;;21.60;99.90;;;;;;5029974;28;20270;-79
2022/09/28 05:40:01;;;;;;;7.00;1.52;;;21.60;99.90;;;;;;5027880;28;20199;-80
2022/09/28 05:42:32;;;;;;;6.93;1.83;;;21.60;99.90;;;;;;5027703;28;20204;-79
2022/09/28 05:45:03;;;;;;;7.00;1.80;;;21.50;99.90;;;;;;5038159;28;20196;-79
2022/09/28 05:47:38;;;;;;;6.07;1.65;;;21.90;99.90;;;;;;5029403;28;20263;-79
2022/09/28 05:50:14;;;;;;;6.63;1.45;;;21.90;99.90;;;;;;5027002;28;20232;-79
2022/09/28 05:52:45;;;;;;;6.30;1.77;;;21.90;99.90;;;;;;5032892;28;20201;-79
2022/09/28 05:55:16;;;;;;;7.30;1.63;;;21.80;99.90;;;;;;5029102;28;20231;-79
2022/09/28 05:57:47;;;;;;;7.78;1.70;;;21.70;99.90;;;;;;5035471;28;20572;-79
2022/09/28 06:00:18;;;;;;;5.05;1.35;;;21.70;99.90;;;;;;5031813;28;20224;-81
2022/09/28 06:02:58;;;;;;;6.28;1.40;;;21.60;99.90;;;;;;5044622;28;20212;-81
2022/09/28 06:05:32;;;;;;;5.07;1.35;;;21.70;99.90;;;;;;5033540;28;20605;-81
2022/09/28 06:08:04;;;;;;;6.18;1.30;;;21.70;99.90;;;;;;5025855;28;20909;-81
2022/09/28 06:10:35;;;;;;;7.60;1.50;;;21.50;99.90;;;;;;5026758;28;20227;-81
2022/09/28 06:13:06;;;;;;;9.10;1.88;;;21.50;99.90;;;;;;5023859;28;20692;-81
2022/09/28 06:15:38;;;;;;;5.75;1.65;;;21.40;99.90;;;;;;5027851;28;20229;-80
2022/09/28 06:18:12;;;;;;;6.97;1.60;;;21.40;99.90;;;;;;5036571;28;20228;-80
2022/09/28 06:20:45;;;;;;;8.73;1.60;;;21.30;99.90;;;;;;5025974;28;22191;-80
2022/09/28 06:23:17;;;;;;;6.93;1.63;;;21.20;99.90;;;;;;5035539;28;20200;-79
2022/09/28 06:25:48;;;;;;;6.35;1.40;;;21.20;99.90;;;;;;5049602;28;20219;-79
2022/09/28 06:28:20;;;;;;;6.60;1.45;;;21.10;99.90;;;;;;5048985;28;20208;-80
2022/09/28 06:30:52;;;;;;;6.28;1.70;;;21.00;99.90;;;;;;5047392;28;20618;-82
2022/09/28 06:33:24;;;;;;;7.97;1.63;;;20.90;99.90;;;;;;5046675;28;20640;-79
2022/09/28 06:35:58;;;;;;;5.85;1.48;;;20.70;99.90;;;;;;5049253;28;20225;-79
2022/09/28 06:38:29;;;;;;;6.63;1.33;;;20.60;99.90;;;;;;5051092;28;20208;-79
2022/09/28 06:43:59;;;;;;;4.32;1.33;;;20.40;99.90;;;;;;5059490;28;20209;-80
2022/09/28 06:46:30;;;;;;;9.52;1.60;;;20.40;99.90;;;;;;5046391;28;20204;-80
2022/09/28 06:49:05;;;;;;;5.75;1.45;;;20.40;99.90;;;;;;5048887;28;20208;-80
2022/09/28 06:51:39;;;;;;;6.57;1.58;;;20.30;99.90;;;;;;5047221;28;20214;-80
2022/09/28 06:54:10;;;;;;;5.80;1.30;;;20.30;99.90;;;;;;5046206;28;20747;-80
2022/09/28 06:56:41;;;;;;;6.18;1.30;;;20.30;99.90;;;;;;5041207;28;20215;-79
2022/09/28 06:59:12;;;;;;;8.07;1.50;;;20.20;99.90;;;;;;5033501;28;20196;-80
2022/09/28 07:01:46;;;;;;;7.85;1.90;;;20.20;99.90;;;;;;5031447;28;20324;-80
2022/09/28 07:04:19;;;;;;;4.55;1.75;;;20.20;99.90;;;;;;5030329;28;20869;-80
2022/09/28 07:06:53;;;;;;;6.45;1.75;;;20.10;99.90;;;;;;5036229;28;20200;-79
2022/09/28 07:09:23;;;;;;;5.97;1.75;;;20.10;99.90;;;;;;5039022;28;20746;-80
2022/09/28 07:11:57;;;;;;;6.70;1.75;;;20.10;99.90;;;;;;5012971;28;20205;-79
2022/09/28 07:14:29;;;;;;;5.38;1.45;;;20.10;99.90;;;;;;5029425;28;20239;-79
2022/09/28 07:16:59;;;;;;;5.45;1.30;;;20.10;99.90;;;;;;5034744;28;20263;-78
2022/09/28 07:19:30;;;;;;;5.40;1.23;;;20.00;99.90;;;;;;5029691;28;20193;-79
2022/09/28 07:22:03;;;;;;;4.57;1.45;;;20.00;99.90;;;;;;5031750;28;20200;-78
2022/09/28 07:24:33;;;;;;;7.57;1.40;;;19.90;99.90;;;;;;5027695;28;20302;-80
2022/09/28 07:27:05;;;;;;;8.77;1.75;;;19.90;99.90;;;;;;5029636;28;20697;-79
2022/09/28 07:29:35;;;;;;;6.75;1.98;;;19.80;99.90;;;;;;5033630;28;20320;-79
2022/09/28 07:32:06;;;;;;;8.27;2.03;;;19.90;99.90;;;;;;5027457;28;20550;-80
2022/09/28 07:34:40;;;;;;;6.10;1.40;;;19.80;99.90;;;;;;5026407;28;20216;-79
2022/09/28 07:37:12;;;;;;;7.32;1.95;;;19.80;99.90;;;;;;5027528;28;20196;-80
2022/09/28 07:42:30;;;;;;;5.68;1.20;;;19.70;99.90;;;;;;5030106;28;20269;-79
2022/09/28 07:45:02;;;;;;;8.45;1.55;;;19.70;99.90;;;;;;5034754;28;20270;-79
2022/09/28 07:47:34;;;;;;;6.55;1.52;;;19.60;99.90;;;;;;5028907;28;20219;-79
2022/09/28 07:50:07;;;;;;;5.30;1.40;;;19.70;99.90;;;;;;5027327;28;20229;-79
2022/09/28 07:52:40;;;;;;;5.60;1.55;;;19.70;99.90;;;;;;5027073;28;20734;-80
2022/09/28 07:55:11;;;;;;;4.75;1.52;;;19.70;99.90;;;;;;5006757;28;20223;-80
2022/09/28 07:57:42;;;;;;;4.05;1.40;;;19.70;99.90;;;;;;5006045;28;20205;-81
2022/09/28 08:00:13;;;;;;;6.00;1.13;;;19.70;99.90;;;;;;5006894;28;20570;-80
2022/09/28 08:02:44;;;;;;;3.63;1.30;;;19.60;99.90;;;;;;5007240;28;20201;-79
2022/09/28 08:05:15;;;;;;;4.80;1.17;;;19.60;99.90;;;;;;5008604;28;20205;-79
2022/09/28 08:07:48;;;;;;;5.78;1.60;;;19.50;99.90;;;;;;5010016;28;20237;-78
2022/09/28 08:10:19;;;;;;;5.05;1.50;;;19.50;99.90;;;;;;5014077;28;20211;-79
2022/09/28 08:12:54;;;;;;;5.57;1.48;;;19.50;99.90;;;;;;5026834;28;20228;-79
2022/09/28 08:15:26;;;;;;;5.70;1.70;;;19.50;99.90;;;;;;5010627;28;20311;-78
2022/09/28 08:17:57;;;;;;;5.43;1.63;;;19.50;99.90;;;;;;5007717;28;20675;-78
2022/09/28 08:23:16;;;;;;;7.00;2.45;;;19.40;99.90;;;;;;5005625;28;22243;-78
2022/09/28 08:25:53;;;;;;;4.30;1.38;;;19.40;99.90;;;;;;5005539;28;20215;-78
2022/09/28 08:28:24;;;;;;;5.30;1.70;;;19.40;99.90;;;;;;5005877;28;20205;-78
2022/09/28 08:30:55;;;;;;;6.45;2.00;;;19.30;99.90;;;;;;5004942;28;20271;-78
2022/09/28 08:33:26;;;;;;;9.75;3.58;;;19.30;99.90;;;;;;5004600;28;20207;-78
2022/09/28 08:35:59;;;;;;;4.68;1.88;;;19.20;99.90;;;;;;5004826;28;20232;-78
2022/09/28 08:38:33;;;;;;;5.65;2.63;;;19.20;99.90;;;;;;5004844;28;20709;-78
2022/09/28 08:41:18;;;;;;;7.32;3.20;;;19.20;99.90;;;;;;5006100;28;20200;-78
2022/09/28 08:44:15;;;;;;;7.68;2.63;;;19.20;99.90;;;;;;5006719;28;20267;-78
2022/09/28 08:46:51;;;;;;;10.20;2.97;;;19.20;99.90;;;;;;5005863;28;20628;-78
2022/09/28 08:49:26;;;;;;;7.40;4.82;;;19.30;99.90;;;;;;5003146;28;20227;-78
2022/09/28 08:52:02;;;;;;;11.23;2.63;;;19.20;99.90;;;;;;5005600;28;20228;-78
2022/09/28 08:54:40;;;;;;;6.55;2.05;;;19.20;99.90;;;;;;5018461;28;20223;-78
2022/09/28 08:57:17;;;;;;;5.05;1.92;;;19.20;99.90;;;;;;5028421;28;20212;-78
2022/09/28 08:59:52;;;;;;;9.82;2.42;;;19.10;99.90;;;;;;5024303;28;20277;-78
2022/09/28 09:02:26;;;;;;;11.48;3.40;;;19.20;99.90;;;;;;5025322;28;20251;-78
2022/09/28 09:04:59;;;;;;;8.05;3.20;;;19.10;99.90;;;;;;5024047;28;20200;-78
2022/09/28 09:08:07;;;;;;;7.57;2.50;;;19.00;99.90;;;;;;5025270;28;20201;-78
2022/09/28 09:10:51;;;;;;;6.57;2.88;;;19.00;99.90;;;;;;5027588;28;21220;-78
2022/09/28 09:13:38;;;;;;;8.13;3.80;;;19.10;99.90;;;;;;5030013;28;20214;-78
2022/09/28 09:16:21;;;;;;;7.80;3.30;;;19.00;99.90;;;;;;5047222;28;20303;-78
2022/09/28 09:18:57;;;;;;;4.80;1.83;;;19.00;99.90;;;;;;5026928;28;20204;-78
2022/09/28 09:21:40;;;;;;;6.43;2.05;;;19.10;99.90;;;;;;5025048;28;20201;-78
2022/09/28 09:24:23;;;;;;;8.80;2.00;;;19.10;99.90;;;;;;5024812;28;20613;-78
2022/09/28 09:27:05;;;;;;;6.72;1.80;;;19.00;99.90;;;;;;5024009;28;20932;-78
2022/09/28 09:29:51;;;;;;;4.38;1.80;;;19.00;99.90;;;;;;5024706;28;20204;-78
2022/09/28 09:32:53;;;;;;;3.97;1.70;;;19.00;99.90;;;;;;5023734;28;20691;-78
2022/09/28 09:35:44;;;;;;;7.95;2.20;;;18.90;99.90;;;;;;5023877;28;20220;-78
2022/09/28 09:38:40;;;;;;;3.72;2.00;;;18.90;99.90;;;;;;5025147;28;20583;-78
2022/09/28 09:41:25;;;;;;;7.30;2.50;;;18.80;99.90;;;;;;5024125;28;20201;-78
2022/09/28 09:44:16;;;;;;;6.60;1.95;;;18.80;99.90;;;;;;5025908;28;20201;-78
2022/09/28 09:46:53;;;;;;;7.93;2.58;;;18.90;99.90;;;;;;5025338;28;20211;-78
2022/09/28 09:49:26;;;;;;;5.68;2.22;;;18.90;99.90;;;;;;5023042;28;20207;-78
2022/09/28 09:52:03;;;;;;;7.32;2.28;;;18.90;99.90;;;;;;5023385;28;20246;-78
2022/09/28 09:54:40;;;;;;;10.57;3.55;;;18.80;99.90;;;;;;5022798;28;20224;-79
2022/09/28 09:57:15;;;;;;;9.73;3.65;;;18.90;99.90;;;;;;5025582;28;20200;-79
2022/09/28 09:59:48;;;;;;;6.38;2.85;;;18.80;99.90;;;;;;5024697;28;20277;-79
2022/09/28 10:02:25;;;;;;;7.07;2.53;;;18.80;99.90;;;;;;5023895;28;20193;-77
2022/09/28 10:04:59;;;;;;;11.15;3.47;;;18.70;99.90;;;;;;5023923;28;20197;-80
2022/09/28 10:07:38;;;;;;;11.00;2.63;;;18.60;99.90;;;;;;5021549;28;20442;-79
2022/09/28 10:10:16;;;;;;;9.32;2.97;;;18.50;99.90;;;;;;5025028;28;20208;-80
2022/09/28 10:12:47;;;;;;;10.48;2.95;;;18.40;99.90;;;;;;5025309;28;20220;-79
2022/09/28 10:15:25;;;;;;;9.13;2.10;;;18.40;99.90;;;;;;5031860;28;20230;-80
2022/09/28 10:17:57;;;;;;;9.40;2.28;;;18.40;99.90;;;;;;5058594;28;20224;-80
2022/09/28 10:20:30;;;;;;;7.80;1.85;;;18.40;99.90;;;;;;5051280;28;20216;-80
2022/09/28 10:23:03;;;;;;;3.88;2.20;;;18.30;99.90;;;;;;5053479;28;20193;-80
2022/09/28 10:25:37;;;;;;;10.43;2.85;;;18.30;99.90;;;;;;5052999;28;20200;-80
2022/09/28 10:28:12;;;;;;;4.00;1.60;;;18.30;99.90;;;;;;5047007;28;20235;-80
2022/09/28 10:30:45;;;;;;;3.17;1.30;;;18.30;99.90;;;;;;5049451;28;20208;-80
2022/09/28 10:33:32;;;;;;;2.90;1.15;;;18.00;99.90;;;;;;5027557;28;20207;-80
2022/09/28 10:36:05;;;;;;;4.00;1.52;;;17.90;99.90;;;;;;5026176;28;20687;-79
2022/09/28 10:38:36;;;;;;;3.63;1.40;;;17.90;99.90;;;;;;5025786;28;20204;-79
2022/09/28 10:41:15;;;;;;;2.70;1.30;;;17.90;99.90;;;;;;5028287;28;20202;-80
2022/09/28 10:44:04;;;;;;;2.22;0.90;;;17.80;99.90;;;;;;5027899;28;21122;-79
2022/09/28 10:46:39;;;;;;;4.53;1.10;;;17.60;99.90;;;;;;5027595;28;20198;-78
2022/09/28 10:49:17;;;;;;;1.80;0.90;;;17.60;99.90;;;;;;5025443;28;20276;-79
2022/09/28 10:51:50;;;;;;;3.42;0.90;;;17.50;99.90;;;;;;5027337;28;20207;-78
2022/09/28 10:54:24;;;;;;;3.17;0.98;;;17.40;99.90;;;;;;5027540;28;20239;-79
2022/09/28 10:56:56;;;;;;;2.70;1.20;;;17.30;99.90;;;;;;5026588;28;20741;-79
2022/09/28 10:59:41;;;;;;;1.55;1.05;;;17.20;99.90;;;;;;5028349;28;22581;-78
2022/09/28 11:02:26;;;;;;;1.65;1.02;;;17.20;99.90;;;;;;5025323;28;20201;-78
2022/09/28 11:04:58;;;;;;;2.10;1.08;;;17.10;99.90;;;;;;5029749;28;20201;-78
2022/09/28 11:07:32;;;;;;;2.92;1.20;;;17.00;99.90;;;;;;5026282;28;20197;-78
2022/09/28 11:10:04;;;;;;;3.25;1.00;;;17.00;99.90;;;;;;5027238;28;20292;-78
2022/09/28 11:12:44;;;;;;;1.40;0.90;;;17.00;99.90;;;;;;5028881;28;20552;-78
2022/09/28 11:15:21;;;;;;;1.48;0.85;;;17.00;99.90;;;;;;5028081;28;20353;-79
2022/09/28 11:17:54;;;;;;;1.50;0.95;;;17.10;99.90;;;;;;5037206;28;20305;-79
2022/09/28 11:20:39;;;;;;;2.25;1.10;;;17.00;99.90;;;;;;5041800;28;20248;-79
2022/09/28 11:23:21;;;;;;;3.58;1.13;;;17.00;99.90;;;;;;5026382;28;20196;-79
2022/09/28 11:26:04;;;;;;;1.75;0.80;;;17.00;99.90;;;;;;5025746;28;20253;-79
2022/09/28 11:28:37;;;;;;;1.45;0.80;;;17.00;99.90;;;;;;5025426;28;20205;-79
2022/09/28 11:31:10;;;;;;;1.27;0.80;;;17.00;99.90;;;;;;5027856;28;20265;-79
2022/09/28 11:33:46;;;;;;;0.85;0.80;;;17.00;99.90;;;;;;5026100;28;20265;-78
2022/09/28 11:36:31;;;;;;;2.63;0.90;;;17.00;99.90;;;;;;5024842;28;20217;-79
2022/09/28 11:39:12;;;;;;;1.60;0.85;;;16.90;99.90;;;;;;5025869;28;20208;-78
2022/09/28 11:41:57;;;;;;;1.45;0.80;;;16.90;99.90;;;;;;5025591;28;20200;-79
2022/09/28 11:44:43;;;;;;;2.38;0.95;;;16.80;99.90;;;;;;5029458;28;20232;-79
2022/09/28 11:47:34;;;;;;;2.28;0.93;;;16.70;99.90;;;;;;5030865;28;20214;-79
2022/09/28 11:50:17;;;;;;;2.00;1.00;;;16.70;99.90;;;;;;5025312;28;20558;-79
2022/09/28 11:52:55;;;;;;;0.90;0.60;;;16.70;99.90;;;;;;5026379;28;21199;-80
2022/09/28 11:55:33;;;;;;;1.17;0.60;;;16.70;99.90;;;;;;5025536;28;20204;-79
2022/09/28 11:58:10;;;;;;;1.55;0.73;;;16.60;99.90;;;;;;5030426;28;20192;-79
2022/09/28 12:00:46;;;;;;;1.42;0.50;;;16.50;99.90;;;;;;5026484;28;20249;-78
2022/09/28 12:03:22;;;;;;;3.20;0.80;;;16.50;99.90;;;;;;5026902;28;20622;-78
2022/09/28 12:06:01;;;;;;;1.20;0.80;;;16.50;99.90;;;;;;5025750;28;21217;-78
2022/09/28 12:08:35;;;;;;;1.30;0.80;;;16.50;99.90;;;;;;5026149;28;20205;-78
2022/09/28 12:11:12;;;;;;;1.88;0.88;;;16.60;99.90;;;;;;5025148;28;20232;-78
2022/09/28 12:13:46;;;;;;;1.95;0.70;;;16.50;99.90;;;;;;5027372;28;20196;-78
2022/09/28 12:16:23;;;;;;;1.58;0.80;;;16.50;99.90;;;;;;5035922;28;20242;-78
2022/09/28 12:18:58;;;;;;;1.17;0.77;;;16.60;99.90;;;;;;5026932;28;20199;-79
2022/09/28 12:21:38;;;;;;;0.95;0.70;;;16.60;99.90;;;;;;5042548;28;21506;-78
2022/09/28 12:24:17;;;;;;;1.58;0.90;;;16.70;99.90;;;;;;5029849;28;20602;-78
2022/09/28 12:26:54;;;;;;;1.60;0.80;;;16.60;99.90;;;;;;5023634;28;21204;-78
2022/09/28 12:29:29;;;;;;;0.95;0.88;;;16.60;99.90;;;;;;5027115;28;20200;-78
2022/09/28 12:32:09;;;;;;;1.17;0.80;;;16.70;99.90;;;;;;5025535;28;20201;-78
2022/09/28 12:34:42;;;;;;;3.00;0.80;;;16.70;99.90;;;;;;5023796;28;20220;-78
2022/09/28 12:37:34;;;;;;;0.80;0.80;;;16.60;99.90;;;;;;5025945;28;20225;-77
2022/09/28 12:40:27;;;;;;;0.98;0.68;;;16.60;99.90;;;;;;5025930;28;20208;-78
2022/09/28 12:44:03;;;;;;;1.15;0.60;;;16.70;99.90;;;;;;5029223;28;20207;-76
2022/09/28 12:50:13;;;;;;;0.82;0.77;;;16.70;99.90;;;;;;5033753;28;20249;-79
2022/09/28 12:53:01;;;;;;;0.57;0.50;;;16.70;99.90;;;;;;5030655;28;20193;-80
2022/09/28 12:55:54;;;;;;;1.60;0.60;;;16.70;99.90;;;;;;5010825;28;20221;-79
2022/09/28 12:58:51;;;;;;;1.38;0.60;;;16.70;99.90;;;;;;5010065;28;20679;-80
2022/09/28 13:01:45;;;;;;;1.45;0.60;;;16.70;99.90;;;;;;5011500;28;20676;-80
2022/09/28 13:04:42;;;;;;;4.68;0.73;;;16.80;99.90;;;;;;5015575;28;20678;-79
2022/09/28 13:07:22;;;;;;;1.17;0.70;;;16.80;99.90;;;;;;5025266;28;20425;-80
2022/09/28 13:10:09;;;;;;;0.60;0.60;;;16.80;99.90;;;;;;5034397;28;20544;-79
2022/09/28 13:13:04;;;;;;;1.13;0.60;;;16.80;99.90;;;;;;5035084;28;20201;-80
2022/09/28 13:16:06;;;;;;;1.40;0.70;;;16.80;99.90;;;;;;5033122;28;20225;-79
2022/09/28 13:18:46;;;;;;;0.98;0.65;;;16.80;99.90;;;;;;5024190;28;20231;-79
2022/09/28 13:21:29;;;;;;;2.05;0.82;;;16.80;99.90;;;;;;5031978;28;20197;-81
2022/09/28 13:24:04;;;;;;;0.70;0.70;;;16.80;99.90;;;;;;5039487;28;20189;-77
2022/09/28 13:26:40;;;;;;;1.45;0.80;;;16.70;99.90;;;;;;5027174;28;20190;-78
2022/09/28 13:29:15;;;;;;;3.13;0.73;;;16.60;99.90;;;;;;5024562;28;20746;-77
2022/09/28 13:31:51;;;;;;;0.73;0.73;;;16.50;99.90;;;;;;5028309;28;20199;-78
2022/09/28 13:34:23;;;;;;;0.85;0.70;;;16.50;99.90;;;;;;5030866;28;20577;-79
2022/09/28 13:37:12;;;;;;;1.45;0.73;;;16.60;99.90;;;;;;5029299;28;20269;-79
2022/09/28 13:39:57;;;;;;;1.20;0.80;;;16.60;99.90;;;;;;5012594;28;20315;-79
2022/09/28 13:42:54;;;;;;;0.95;0.75;;;16.60;99.90;;;;;;5014341;28;20203;-78
2022/09/28 13:45:55;;;;;;;0.52;0.52;;;16.50;99.90;;;;;;5019760;28;20668;-79